Time;durP1;ratioP1;P1;durP2;ratioP2;P2;SDS_P1;SDS_P2;PMS_P1;PMS_P2;Temp;Humidity;BMP_temperature;BMP_pressure;BME280_temperature;BME280_humidity;BME280_pressure;Samples;Min_cycle;Max_cycle;Signal;HPM_P1;HPM_P2
2021/07/13 00:01:26;;;;;;;11.55;5.93;;;;;;;23.94;45.30;94640.22;2966853;40;20287;-68
2021/07/13 00:03:28;;;;;;;6.57;5.32;;;;;;;23.94;45.25;94638.38;2967892;40;20056;-68
2021/07/13 00:05:30;;;;;;;6.25;4.80;;;;;;;23.88;45.65;94642.03;2959509;40;20469;-70
2021/07/13 00:07:32;;;;;;;8.40;5.50;;;;;;;23.91;45.24;94650.34;2964288;40;20133;-68
2021/07/13 00:09:33;;;;;;;9.30;6.05;;;;;;;24.01;45.35;94646.22;2975027;39;20064;-83
2021/07/13 00:11:35;;;;;;;7.40;6.28;;;;;;;24.07;44.71;94648.75;2968296;40;20098;-82
2021/07/13 00:13:37;;;;;;;8.30;5.70;;;;;;;24.11;44.52;94654.41;2969388;40;20347;-81
2021/07/13 00:15:42;;;;;;;7.63;5.50;;;;;;;24.17;44.06;94649.94;2967439;40;20056;-82
2021/07/13 00:17:44;;;;;;;9.48;5.30;;;;;;;24.14;44.02;94656.59;2967478;40;20049;-82
2021/07/13 00:19:46;;;;;;;6.82;5.63;;;;;;;24.06;44.34;94655.13;2969818;40;20066;-82
2021/07/13 00:21:48;;;;;;;6.70;5.10;;;;;;;24.06;44.05;94657.81;2969722;40;20165;-79
2021/07/13 00:23:50;;;;;;;5.60;4.93;;;;;;;24.05;43.79;94658.88;2966308;40;20564;-82
2021/07/13 00:25:52;;;;;;;6.80;5.18;;;;;;;24.07;44.04;94654.09;2958730;40;20355;-83
2021/07/13 00:27:54;;;;;;;7.10;4.82;;;;;;;24.11;44.14;94663.25;2969200;40;20048;-81
2021/07/13 00:29:56;;;;;;;8.07;5.13;;;;;;;24.14;44.22;94661.16;2967710;40;20120;-69
2021/07/13 00:31:58;;;;;;;5.68;4.68;;;;;;;24.15;44.07;94663.56;2962480;40;20125;-69
2021/07/13 00:34:00;;;;;;;7.07;5.20;;;;;;;24.12;44.27;94664.88;2968085;40;20674;-69
2021/07/13 00:36:01;;;;;;;10.93;5.63;;;;;;;24.12;44.06;94661.38;2965650;40;20070;-81
2021/07/13 00:38:03;;;;;;;7.88;5.07;;;;;;;24.11;44.02;94668.59;2972205;40;20147;-82
2021/07/13 00:40:06;;;;;;;7.25;5.20;;;;;;;24.14;44.10;94666.50;2970713;40;20168;-81
2021/07/13 00:42:15;;;;;;;7.03;5.20;;;;;;;24.15;44.06;94660.88;2968902;40;20078;-81
2021/07/13 00:44:19;;;;;;;6.72;5.45;;;;;;;24.14;43.80;94664.63;2969301;40;20137;-81
2021/07/13 00:46:21;;;;;;;9.77;4.82;;;;;;;24.14;43.98;94663.81;2969237;40;20126;-81
2021/07/13 00:48:23;;;;;;;7.38;5.13;;;;;;;24.15;43.92;94668.09;2975981;40;20052;-82
2021/07/13 00:50:26;;;;;;;8.10;4.97;;;;;;;24.15;44.05;94665.44;2961209;40;20061;-82
2021/07/13 00:52:28;;;;;;;7.40;5.60;;;;;;;24.15;43.96;94657.41;2959819;40;20060;-81
2021/07/13 00:54:31;;;;;;;10.88;5.70;;;;;;;24.15;44.41;94665.44;2951186;40;20049;-81
2021/07/13 00:56:37;;;;;;;6.35;4.95;;;;;;;24.21;44.23;94661.78;2962950;40;20415;-82
2021/07/13 00:58:39;;;;;;;6.28;4.93;;;;;;;24.21;44.06;94657.22;2968550;40;20070;-83
2021/07/13 01:00:40;;;;;;;10.40;5.50;;;;;;;24.24;44.26;94655.94;2963163;40;20053;-81
2021/07/13 01:02:43;;;;;;;6.95;4.85;;;;;;;24.27;44.33;94660.81;2960276;40;20045;-82
2021/07/13 01:04:48;;;;;;;6.32;5.05;;;;;;;24.25;44.30;94652.22;2959619;40;20061;-80
2021/07/13 01:07:09;;;;;;;6.45;4.95;;;;;;;24.13;44.26;94654.97;2960610;40;20084;-80
2021/07/13 01:09:26;;;;;;;7.82;5.30;;;;;;;23.86;44.85;94650.28;2961842;40;20084;-82
2021/07/13 01:11:47;;;;;;;6.50;5.32;;;;;;;23.77;45.30;94653.59;2962658;40;20128;-83
2021/07/13 01:13:58;;;;;;;7.30;5.40;;;;;;;23.79;45.19;94651.47;2963912;40;20057;-83
2021/07/13 01:16:03;;;;;;;8.35;5.35;;;;;;;23.86;44.74;94654.81;2964774;40;20056;-81
2021/07/13 01:18:21;;;;;;;8.10;5.32;;;;;;;23.88;45.07;94647.38;2963850;40;20490;-82
2021/07/13 01:20:45;;;;;;;5.82;4.93;;;;;;;23.93;44.96;94647.44;2958637;40;20045;-82
2021/07/13 01:22:51;;;;;;;8.27;5.32;;;;;;;23.83;44.80;94650.78;2959003;40;20064;-82
2021/07/13 01:25:08;;;;;;;6.80;5.35;;;;;;;23.34;46.37;94653.13;2958752;40;20057;-83
2021/07/13 01:27:20;;;;;;;7.22;5.43;;;;;;;23.15;46.80;94659.69;2961405;40;20503;-81
2021/07/13 01:29:25;;;;;;;11.50;5.40;;;;;;;22.86;46.80;94652.41;2972789;40;20084;-82
2021/07/13 01:31:47;;;;;;;8.48;5.53;;;;;;;22.66;47.37;94657.34;2966726;40;20088;-82
2021/07/13 01:33:54;;;;;;;8.70;6.20;;;;;;;22.48;47.61;94659.13;2956977;40;20139;-83
2021/07/13 01:36:05;;;;;;;8.82;5.30;;;;;;;22.27;48.36;94667.72;2958497;40;20401;-81
2021/07/13 01:38:09;;;;;;;5.57;4.82;;;;;;;21.85;48.47;94678.44;2957771;40;20045;-81
2021/07/13 01:40:11;;;;;;;6.38;5.32;;;;;;;21.59;49.29;94672.47;2965952;40;20061;-82
2021/07/13 01:42:13;;;;;;;6.93;4.78;;;;;;;21.52;49.27;94671.78;2959800;40;20065;-83
2021/07/13 01:44:17;;;;;;;5.90;5.30;;;;;;;21.57;49.27;94674.56;2950577;40;20075;-81
2021/07/13 01:46:20;;;;;;;7.40;5.03;;;;;;;21.74;48.87;94674.72;2959646;40;20409;-82
2021/07/13 01:48:25;;;;;;;6.35;4.70;;;;;;;21.96;48.48;94674.16;2960346;40;20052;-81
2021/07/13 01:50:27;;;;;;;7.25;4.82;;;;;;;22.20;47.92;94667.81;2960206;40;20097;-81
2021/07/13 01:52:30;;;;;;;6.20;5.05;;;;;;;22.48;47.06;94667.13;2958158;40;20069;-82
2021/07/13 01:54:33;;;;;;;7.35;4.93;;;;;;;22.69;46.82;94663.06;2964977;40;20101;-83
2021/07/13 01:56:38;;;;;;;6.68;5.30;;;;;;;22.83;46.36;94663.59;2973627;40;20060;-82
2021/07/13 01:58:42;;;;;;;7.35;5.25;;;;;;;22.97;45.95;94668.66;2952598;40;20127;-81
2021/07/13 02:00:44;;;;;;;5.88;5.15;;;;;;;23.08;46.47;94666.00;2963673;40;20053;-80
2021/07/13 02:02:47;;;;;;;8.10;5.53;;;;;;;23.17;45.76;94666.44;2960975;40;20097;-82
2021/07/13 02:04:49;;;;;;;7.85;5.15;;;;;;;23.25;46.00;94667.88;2967644;40;20452;-82
2021/07/13 02:06:51;;;;;;;5.65;4.78;;;;;;;23.38;45.72;94666.78;2966208;40;20073;-81
2021/07/13 02:08:59;;;;;;;6.20;4.78;;;;;;;23.48;44.98;94659.75;2954046;40;20061;-81
2021/07/13 02:11:00;;;;;;;6.45;5.00;;;;;;;23.46;44.94;94661.88;2974805;40;20474;-81
2021/07/13 02:13:05;;;;;;;6.85;5.15;;;;;;;23.50;45.33;94667.56;2959217;40;20073;-81
2021/07/13 02:15:07;;;;;;;6.40;5.20;;;;;;;23.46;45.01;94661.06;2968005;40;20114;-82
2021/07/13 02:17:10;;;;;;;8.30;5.50;;;;;;;23.43;45.37;94656.22;2965455;40;20069;-81
2021/07/13 02:19:12;;;;;;;6.13;5.10;;;;;;;23.39;45.60;94655.88;2961039;40;20073;-81
2021/07/13 02:21:16;;;;;;;6.83;5.27;;;;;;;23.33;45.58;94661.34;2964971;40;20069;-81
2021/07/13 02:23:17;;;;;;;6.90;5.32;;;;;;;23.36;45.66;94655.53;2967715;40;20089;-79
2021/07/13 02:25:19;;;;;;;6.88;4.88;;;;;;;23.28;45.30;94665.56;2958994;40;20386;-80
2021/07/13 02:27:21;;;;;;;9.98;4.90;;;;;;;23.25;45.05;94651.84;2958903;40;20326;-80
2021/07/13 02:29:48;;;;;;;7.43;5.10;;;;;;;23.12;45.64;94660.16;2967092;40;20064;-81
2021/07/13 02:31:54;;;;;;;7.32;5.65;;;;;;;22.98;46.12;94656.94;2962098;40;20274;-81
2021/07/13 02:34:05;;;;;;;7.47;5.72;;;;;;;22.92;46.04;94656.00;2967773;40;20046;-81
2021/07/13 02:36:12;;;;;;;7.93;5.18;;;;;;;22.85;46.39;94650.81;2969853;40;20072;-81
2021/07/13 02:38:14;;;;;;;7.78;5.38;;;;;;;22.85;46.14;94652.69;2957387;40;20049;-82
2021/07/13 02:40:16;;;;;;;8.18;5.63;;;;;;;22.80;46.56;94664.06;2956353;40;20130;-80
2021/07/13 02:42:18;;;;;;;6.70;4.90;;;;;;;22.82;46.48;94661.16;2963697;40;20045;-81
2021/07/13 02:44:21;;;;;;;6.45;5.18;;;;;;;22.86;46.43;94662.31;2961573;40;20105;-82
2021/07/13 02:46:27;;;;;;;8.93;5.18;;;;;;;22.72;47.01;94661.75;2973509;40;20133;-81
2021/07/13 02:48:29;;;;;;;8.95;5.13;;;;;;;22.56;47.25;94659.81;2968648;40;20053;-82
2021/07/13 02:50:31;;;;;;;7.45;5.28;;;;;;;22.50;47.18;94664.25;2970263;40;20132;-79
2021/07/13 02:52:33;;;;;;;6.65;5.13;;;;;;;22.52;47.55;94664.00;2961783;40;20429;-81
2021/07/13 02:54:36;;;;;;;9.30;5.53;;;;;;;22.53;47.65;94666.44;2963642;40;20061;-81
2021/07/13 02:56:40;;;;;;;7.20;4.85;;;;;;;22.59;47.44;94662.84;2968945;40;20050;-82
2021/07/13 02:58:41;;;;;;;;;;;;;;;22.73;47.40;94662.56;2962345;40;20193;-81
2021/07/13 03:00:43;;;;;;;8.85;4.90;;;;;;;22.86;46.91;94660.44;2963076;40;19967;-83
2021/07/13 03:02:47;;;;;;;7.70;4.72;;;;;;;22.99;46.40;94663.88;2968992;40;20095;-82
2021/07/13 03:04:49;;;;;;;;;;;;;;;23.08;46.74;94662.47;2966789;40;20397;-81
2021/07/13 03:06:52;;;;;;;7.13;5.65;;;;;;;23.16;46.32;94670.13;2954243;40;20036;-83
2021/07/13 03:08:54;;;;;;;9.80;4.68;;;;;;;23.18;46.34;94664.56;2970644;40;20053;-80
2021/07/13 03:10:57;;;;;;;7.03;5.70;;;;;;;23.19;46.10;94661.66;2962762;40;20065;-82
2021/07/13 03:12:59;;;;;;;7.18;5.57;;;;;;;23.24;45.82;94668.94;2965905;40;20067;-81
2021/07/13 03:15:01;;;;;;;12.50;5.57;;;;;;;23.25;46.32;94668.72;2971195;40;20130;-81
2021/07/13 03:17:04;;;;;;;9.40;5.57;;;;;;;23.27;46.22;94673.81;2971274;40;20422;-81
2021/07/13 03:19:05;;;;;;;13.45;6.07;;;;;;;23.24;46.17;94669.75;2965434;40;20184;-81
2021/07/13 03:21:09;;;;;;;8.60;5.78;;;;;;;23.15;45.92;94671.19;2970260;40;20048;-83
2021/07/13 03:23:11;;;;;;;9.30;5.93;;;;;;;23.03;46.39;94667.75;2968879;40;20417;-81
2021/07/13 03:25:17;;;;;;;7.38;5.57;;;;;;;22.79;46.83;94665.09;2965325;40;20117;-80
2021/07/13 03:27:21;;;;;;;13.05;5.07;;;;;;;22.64;47.51;94662.13;2968221;40;20510;-81
2021/07/13 03:29:23;;;;;;;11.35;5.13;;;;;;;22.65;47.21;94664.56;2970757;40;20267;-80
2021/07/13 03:31:26;;;;;;;10.90;5.22;;;;;;;22.54;47.48;94667.25;2963752;40;20076;-81
2021/07/13 03:33:28;;;;;;;;;;;;;;;22.30;47.94;94659.25;2966649;40;20080;-81
2021/07/13 03:35:30;;;;;;;7.85;5.82;;;;;;;21.93;48.85;94670.13;2970182;40;19939;-69
2021/07/13 03:37:32;;;;;;;7.07;5.75;;;;;;;21.84;49.35;94661.66;2966779;40;20338;-69
2021/07/13 03:39:35;;;;;;;9.30;5.47;;;;;;;22.04;48.99;94665.84;2968034;40;20121;-68
2021/07/13 03:41:37;;;;;;;8.27;5.43;;;;;;;22.23;48.56;94663.91;2965905;40;20086;-69
2021/07/13 03:43:39;;;;;;;8.70;5.72;;;;;;;22.42;47.93;94661.94;2957414;40;20156;-69
2021/07/13 03:45:41;;;;;;;11.45;5.80;;;;;;;22.45;47.95;94656.91;2958118;40;20060;-70
2021/07/13 03:47:53;;;;;;;8.05;5.63;;;;;;;22.43;48.34;94664.34;2964284;40;20445;-70
2021/07/13 03:49:56;;;;;;;8.45;5.65;;;;;;;22.39;48.31;94671.22;2955454;40;20286;-70
2021/07/13 03:51:58;;;;;;;10.13;5.73;;;;;;;22.24;48.75;94669.00;2962084;40;20064;-69
2021/07/13 03:54:00;;;;;;;9.07;5.93;;;;;;;22.26;48.81;94669.59;2965906;40;20056;-69
2021/07/13 03:56:01;;;;;;;7.22;6.45;;;;;;;22.37;48.54;94675.97;2967095;40;20052;-70
2021/07/13 03:58:03;;;;;;;8.65;6.78;;;;;;;22.38;48.77;94669.56;2967146;40;20056;-69
2021/07/13 04:00:11;;;;;;;12.25;7.00;;;;;;;22.39;48.70;94665.03;2966029;40;20308;-70
2021/07/13 04:02:13;;;;;;;9.90;6.63;;;;;;;22.35;48.81;94667.38;2963885;40;20052;-69
2021/07/13 04:04:15;;;;;;;14.88;7.13;;;;;;;22.28;49.01;94664.84;2961525;40;20335;-69
2021/07/13 04:06:17;;;;;;;11.10;7.05;;;;;;;22.35;49.06;94661.22;2964688;40;20056;-69
2021/07/13 04:08:19;;;;;;;10.63;6.57;;;;;;;22.44;49.03;94665.97;2963902;40;20044;-68
2021/07/13 04:10:21;;;;;;;10.02;6.00;;;;;;;22.67;48.27;94661.63;2966787;40;20044;-70
2021/07/13 04:12:23;;;;;;;10.15;6.15;;;;;;;22.80;48.28;94661.41;2966462;40;20059;-70
2021/07/13 04:14:24;;;;;;;11.23;5.82;;;;;;;22.90;48.00;94658.09;2959529;40;20413;-69
2021/07/13 04:16:27;;;;;;;9.23;6.50;;;;;;;23.06;47.67;94664.63;2968177;40;20044;-69
2021/07/13 04:18:29;;;;;;;10.05;6.55;;;;;;;23.19;47.11;94656.31;2963714;40;20057;-69
2021/07/13 04:20:31;;;;;;;7.57;6.32;;;;;;;23.33;46.93;94662.16;2959525;40;20340;-69
2021/07/13 04:22:32;;;;;;;9.23;6.85;;;;;;;23.40;46.76;94662.00;2966044;40;20416;-70
2021/07/13 04:24:37;;;;;;;7.10;5.78;;;;;;;23.52;46.90;94662.78;2967952;40;20302;-70
2021/07/13 04:26:39;;;;;;;10.05;6.88;;;;;;;23.64;46.63;94658.19;2952945;40;20063;-69
2021/07/13 04:28:40;;;;;;;11.68;6.50;;;;;;;23.64;46.40;94658.19;2960885;40;20290;-68
2021/07/13 04:30:42;;;;;;;9.23;6.18;;;;;;;23.69;46.29;94658.25;2967910;40;20056;-71
2021/07/13 04:32:44;;;;;;;10.07;7.03;;;;;;;23.57;46.63;94657.50;2967481;40;20131;-69
2021/07/13 04:34:46;;;;;;;10.32;7.40;;;;;;;23.57;47.41;94654.84;2962723;40;20047;-69
2021/07/13 04:36:48;;;;;;;9.38;6.57;;;;;;;23.57;47.46;94662.84;2967355;40;20054;-69
2021/07/13 04:38:49;;;;;;;10.55;7.13;;;;;;;23.64;46.58;94660.84;2968085;40;20047;-68
2021/07/13 04:40:51;;;;;;;9.18;7.13;;;;;;;23.76;46.63;94660.00;2966746;40;20064;-69
2021/07/13 04:42:53;;;;;;;9.35;7.72;;;;;;;23.78;46.59;94664.06;2956593;40;20086;-71
2021/07/13 04:44:55;;;;;;;10.02;7.25;;;;;;;23.66;46.96;94657.91;2970886;40;20052;-70
2021/07/13 04:46:56;;;;;;;10.50;8.07;;;;;;;23.47;47.63;94652.00;2967800;40;20442;-69
2021/07/13 04:48:58;;;;;;;11.27;8.43;;;;;;;23.21;49.05;94664.06;2965366;40;20062;-70
2021/07/13 04:51:00;;;;;;;9.25;7.35;;;;;;;23.10;49.44;94663.06;2965091;40;20530;-69
2021/07/13 04:53:03;;;;;;;9.70;8.00;;;;;;;23.25;49.14;94666.06;2966389;40;20049;-68
2021/07/13 04:55:05;;;;;;;14.27;8.00;;;;;;;23.41;48.76;94658.31;2965788;40;20060;-68
2021/07/13 04:57:07;;;;;;;13.23;8.50;;;;;;;23.58;47.98;94661.81;2966787;40;20076;-70
2021/07/13 04:59:08;;;;;;;9.63;6.95;;;;;;;23.73;47.37;94655.13;2966984;40;20058;-71
2021/07/13 05:01:10;;;;;;;10.27;7.50;;;;;;;23.66;47.21;94656.09;2958503;40;20137;-69
2021/07/13 05:03:12;;;;;;;12.98;7.95;;;;;;;23.71;47.00;94661.50;2967603;40;20144;-70
2021/07/13 05:05:17;;;;;;;10.38;7.43;;;;;;;23.86;47.02;94657.50;2964705;40;20061;-69
2021/07/13 05:07:19;;;;;;;13.23;8.02;;;;;;;24.01;46.54;94655.06;2967411;40;20052;-71
2021/07/13 05:09:21;;;;;;;12.00;7.57;;;;;;;23.98;46.55;94654.72;2960871;40;20056;-70
2021/07/13 05:11:23;;;;;;;12.07;7.90;;;;;;;23.82;47.36;94657.16;2961495;40;20179;-70
2021/07/13 05:13:24;;;;;;;10.95;8.30;;;;;;;23.76;47.64;94668.03;2963876;40;20047;-70
2021/07/13 05:15:26;;;;;;;10.77;7.95;;;;;;;23.62;47.58;94664.84;2963760;40;20052;-69
2021/07/13 05:17:31;;;;;;;12.23;7.85;;;;;;;23.53;47.86;94653.69;2966716;40;20068;-68
2021/07/13 05:19:34;;;;;;;16.48;8.00;;;;;;;23.70;47.44;94656.38;2966830;40;20304;-69
2021/07/13 05:21:38;;;;;;;14.55;7.90;;;;;;;23.75;47.78;94652.97;2965429;40;20060;-68
2021/07/13 05:23:40;;;;;;;10.82;7.88;;;;;;;23.68;47.90;94663.84;2966012;40;20052;-69
2021/07/13 05:25:42;;;;;;;16.55;8.77;;;;;;;23.60;48.49;94659.72;2966401;40;20059;-69
2021/07/13 05:27:44;;;;;;;12.27;8.82;;;;;;;23.64;48.01;94658.19;2967471;40;20088;-70
2021/07/13 05:29:45;;;;;;;10.98;8.98;;;;;;;23.50;48.20;94660.34;2961545;40;20060;-69
2021/07/13 05:31:50;;;;;;;13.27;8.50;;;;;;;23.63;47.96;94656.53;2965341;40;20088;-69
2021/07/13 05:33:57;;;;;;;10.57;8.45;;;;;;;23.84;47.96;94657.72;2962508;40;20044;-69
2021/07/13 05:35:59;;;;;;;9.77;7.97;;;;;;;23.91;48.13;94658.38;2963364;40;20071;-69
2021/07/13 05:38:01;;;;;;;13.95;9.10;;;;;;;23.96;48.12;94656.84;2965351;40;20060;-70
2021/07/13 05:40:05;;;;;;;17.45;8.65;;;;;;;24.00;47.88;94649.94;2957296;40;20121;-69
2021/07/13 05:42:09;;;;;;;12.05;8.10;;;;;;;24.22;47.76;94656.19;2956698;40;20085;-69
2021/07/13 05:44:11;;;;;;;13.48;8.82;;;;;;;23.89;48.17;94657.00;2967977;40;20062;-81
2021/07/13 05:46:13;;;;;;;13.18;9.13;;;;;;;23.94;48.39;94653.59;2971497;40;20076;-83
2021/07/13 05:48:14;;;;;;;11.50;9.07;;;;;;;23.78;48.79;94663.25;2957290;40;20203;-81
2021/07/13 05:50:16;;;;;;;13.30;8.82;;;;;;;23.90;48.76;94667.47;2969417;40;20341;-83
2021/07/13 05:52:18;;;;;;;13.98;9.05;;;;;;;24.11;48.38;94665.09;2970971;40;20045;-83
2021/07/13 05:54:20;;;;;;;16.35;9.55;;;;;;;24.32;47.28;94658.19;2972001;40;20097;-81
2021/07/13 05:56:21;;;;;;;14.27;8.93;;;;;;;24.08;48.29;94665.59;2970417;40;20120;-81
2021/07/13 05:58:23;;;;;;;11.45;9.10;;;;;;;24.03;48.31;94662.84;2971055;40;20040;-81
2021/07/13 06:00:25;;;;;;;14.25;9.27;;;;;;;24.08;48.33;94662.94;2961486;40;20057;-85
2021/07/13 06:02:26;;;;;;;14.55;9.30;;;;;;;24.07;48.44;94661.28;2970645;40;20063;-83
2021/07/13 06:04:28;;;;;;;14.85;9.93;;;;;;;24.07;48.63;94662.13;2958453;40;20085;-83
2021/07/13 06:06:30;;;;;;;15.40;9.38;;;;;;;24.16;48.60;94657.16;2971488;40;20080;-82
2021/07/13 06:08:32;;;;;;;17.17;9.52;;;;;;;24.25;47.93;94650.34;2967602;40;20137;-85
2021/07/13 06:10:34;;;;;;;14.80;9.45;;;;;;;24.38;47.55;94651.84;2971884;40;20108;-85
2021/07/13 06:12:36;;;;;;;14.83;10.07;;;;;;;24.30;47.79;94653.06;2973849;40;20132;-84
2021/07/13 06:14:38;;;;;;;13.23;8.63;;;;;;;24.45;47.70;94657.03;2972820;40;20318;-81
2021/07/13 06:16:40;;;;;;;16.45;8.85;;;;;;;24.37;48.01;94652.94;2972958;40;20051;-84
2021/07/13 06:18:42;;;;;;;18.40;8.95;;;;;;;24.42;47.94;94646.84;2963592;40;20437;-82
2021/07/13 06:20:44;;;;;;;14.35;8.82;;;;;;;24.44;48.09;94650.88;2967482;40;20073;-82
2021/07/13 06:22:45;;;;;;;14.23;8.80;;;;;;;24.63;47.59;94650.59;2970892;40;20468;-83
2021/07/13 06:24:47;;;;;;;14.35;8.20;;;;;;;24.70;47.68;94648.56;2967291;40;20210;-84
2021/07/13 06:26:49;;;;;;;13.98;8.30;;;;;;;24.89;47.06;94643.72;2970190;40;20068;-86
2021/07/13 06:28:51;;;;;;;20.67;10.00;;;;;;;24.91;47.11;94652.31;2969329;40;20092;-84
2021/07/13 06:30:52;;;;;;;14.75;8.95;;;;;;;24.89;47.28;94652.56;2970712;40;20077;-82
2021/07/13 06:32:54;;;;;;;13.48;9.13;;;;;;;24.93;47.57;94658.25;2961913;40;20146;-82
2021/07/13 06:34:56;;;;;;;38.22;9.38;;;;;;;25.14;47.08;94651.22;2970608;40;20349;-83
2021/07/13 06:36:58;;;;;;;22.25;8.60;;;;;;;25.37;46.88;94655.53;2968048;40;20133;-82
2021/07/13 06:38:59;;;;;;;15.27;8.82;;;;;;;25.38;46.34;94650.97;2970546;40;20096;-81
2021/07/13 06:41:01;;;;;;;15.80;8.93;;;;;;;25.28;46.54;94657.06;2971119;40;20096;-82
2021/07/13 06:43:03;;;;;;;19.50;8.82;;;;;;;25.21;47.19;94654.56;2971092;40;20085;-82
2021/07/13 06:45:05;;;;;;;14.82;8.85;;;;;;;25.26;46.87;94651.13;2961559;40;20061;-82
2021/07/13 06:47:07;;;;;;;23.33;9.13;;;;;;;25.47;46.62;94646.78;2971360;40;20040;-82
2021/07/13 06:49:09;;;;;;;22.80;8.32;;;;;;;25.70;46.26;94654.50;2971496;40;20060;-82
2021/07/13 06:51:11;;;;;;;14.50;7.78;;;;;;;25.96;45.39;94652.06;2972982;40;20060;-84
2021/07/13 06:53:13;;;;;;;15.15;8.23;;;;;;;25.88;45.51;94660.56;2964815;40;20052;-82
2021/07/13 06:55:15;;;;;;;14.77;8.25;;;;;;;25.97;45.12;94648.31;2971669;40;20084;-84
2021/07/13 06:57:16;;;;;;;13.95;8.60;;;;;;;26.11;44.87;94654.88;2971505;40;20124;-85
2021/07/13 06:59:18;;;;;;;13.60;7.80;;;;;;;26.24;45.33;94655.47;2970706;40;20140;-84
2021/07/13 07:01:20;;;;;;;20.52;8.75;;;;;;;26.46;44.55;94650.81;2968319;40;20152;-82
2021/07/13 07:03:22;;;;;;;15.73;8.27;;;;;;;26.41;44.29;94647.28;2971386;40;20064;-83
2021/07/13 07:05:24;;;;;;;12.32;8.93;;;;;;;26.12;44.84;94643.06;2970991;40;20363;-84
2021/07/13 07:07:25;;;;;;;13.60;7.70;;;;;;;26.08;44.51;94641.97;2971135;40;20052;-85
2021/07/13 07:09:27;;;;;;;14.55;8.05;;;;;;;26.24;44.41;94644.75;2963026;40;20148;-83
2021/07/13 07:11:29;;;;;;;11.63;8.07;;;;;;;26.35;44.17;94635.72;2965375;40;20110;-82
2021/07/13 07:13:30;;;;;;;9.10;7.30;;;;;;;26.23;43.47;94641.25;2971279;40;20056;-84
2021/07/13 07:15:32;;;;;;;15.15;7.70;;;;;;;26.15;44.02;94639.06;2972139;40;20068;-84
2021/07/13 07:17:53;;;;;;;16.65;8.10;;;;;;;26.17;44.55;94634.22;2966889;40;20041;-83
2021/07/13 07:20:00;;;;;;;15.48;8.02;;;;;;;26.34;44.43;94634.06;2962718;40;20061;-84
2021/07/13 07:22:03;;;;;;;13.30;7.25;;;;;;;26.57;44.28;94638.28;2962360;40;20063;-82
2021/07/13 07:24:05;;;;;;;10.05;7.60;;;;;;;26.86;43.06;94624.44;2951779;40;20057;-83
2021/07/13 07:26:07;;;;;;;18.27;8.10;;;;;;;26.93;42.37;94631.19;2971249;40;20052;-81
2021/07/13 07:28:11;;;;;;;9.70;6.70;;;;;;;26.92;42.30;94626.06;2971867;40;20210;-83
2021/07/13 07:30:14;;;;;;;11.85;7.10;;;;;;;26.59;42.11;94616.50;2961009;40;20133;-84
2021/07/13 07:32:16;;;;;;;24.67;7.40;;;;;;;26.84;41.91;94623.88;2964080;40;20045;-82
2021/07/13 07:34:18;;;;;;;10.60;7.80;;;;;;;26.88;41.72;94627.66;2967087;40;20041;-84
2021/07/13 07:36:25;;;;;;;14.35;8.43;;;;;;;26.69;41.62;94614.66;2969698;40;20416;-84
2021/07/13 07:38:26;;;;;;;11.40;8.35;;;;;;;26.82;41.13;94621.44;2968361;40;20060;-83
2021/07/13 07:40:28;;;;;;;12.95;8.25;;;;;;;27.02;41.95;94626.09;2969233;40;20080;-83
2021/07/13 07:42:32;;;;;;;15.00;8.30;;;;;;;27.17;41.76;94611.91;2959670;40;20060;-84
2021/07/13 07:44:34;;;;;;;19.48;8.30;;;;;;;27.36;41.44;94610.38;2969327;40;20070;-83
2021/07/13 07:46:41;;;;;;;11.90;7.70;;;;;;;27.10;41.45;94617.53;2974046;40;20137;-82
2021/07/13 07:48:43;;;;;;;13.38;7.18;;;;;;;27.05;41.25;94612.13;2970173;40;20116;-82
2021/07/13 07:50:45;;;;;;;10.82;8.00;;;;;;;26.99;41.91;94612.38;2956447;40;20401;-84
2021/07/13 07:52:47;;;;;;;8.60;6.97;;;;;;;26.89;41.59;94608.59;2967797;40;20365;-82
2021/07/13 07:54:49;;;;;;;9.75;7.35;;;;;;;26.73;42.02;94612.28;2969370;40;20133;-84
2021/07/13 07:56:51;;;;;;;10.70;7.88;;;;;;;26.86;41.78;94614.47;2958955;40;20041;-84
2021/07/13 07:58:53;;;;;;;10.53;7.60;;;;;;;26.87;41.82;94609.94;2969404;40;20095;-82
2021/07/13 08:00:55;;;;;;;12.35;7.13;;;;;;;27.07;41.26;94617.25;2959455;40;20073;-84
2021/07/13 08:02:57;;;;;;;12.07;7.53;;;;;;;26.94;41.51;94610.47;2960745;40;20598;-84
2021/07/13 08:05:00;;;;;;;13.48;7.82;;;;;;;26.88;41.65;94612.34;2967017;40;20413;-82
2021/07/13 08:07:02;;;;;;;14.40;7.25;;;;;;;27.15;41.60;94611.38;2964943;40;20104;-84
2021/07/13 08:09:04;;;;;;;20.92;7.95;;;;;;;27.30;41.61;94619.50;2957774;40;20349;-83
2021/07/13 08:11:05;;;;;;;13.23;6.68;;;;;;;27.18;41.15;94622.38;2969768;40;20323;-82
2021/07/13 08:13:07;;;;;;;9.68;6.95;;;;;;;26.97;40.80;94612.63;2969248;40;20056;-83
2021/07/13 08:15:10;;;;;;;8.25;6.72;;;;;;;27.00;41.13;94620.19;2965296;40;20334;-71
2021/07/13 08:17:12;;;;;;;11.10;7.35;;;;;;;27.24;41.57;94617.06;2955677;40;20368;-71
2021/07/13 08:19:14;;;;;;;8.55;6.68;;;;;;;27.52;40.49;94610.38;2961793;40;20057;-68
2021/07/13 08:21:19;;;;;;;12.25;7.45;;;;;;;27.50;40.16;94612.53;2966402;40;20056;-69
2021/07/13 08:23:21;;;;;;;12.75;6.82;;;;;;;27.71;39.43;94613.38;2966780;40;20051;-68
2021/07/13 08:25:23;;;;;;;17.77;7.65;;;;;;;27.70;39.67;94607.16;2968117;40;20068;-70
2021/07/13 08:27:24;;;;;;;10.73;7.03;;;;;;;27.45;40.10;94612.50;2967037;40;20060;-69
2021/07/13 08:29:26;;;;;;;10.32;6.90;;;;;;;27.29;40.19;94607.09;2969979;40;20088;-84
2021/07/13 08:31:28;;;;;;;7.65;6.82;;;;;;;27.31;40.39;94604.97;2970153;40;20500;-84
2021/07/13 08:33:30;;;;;;;9.82;6.60;;;;;;;27.08;41.24;94610.78;2965735;40;20181;-83
2021/07/13 08:35:32;;;;;;;9.88;7.20;;;;;;;27.18;40.58;94617.00;2968490;40;20399;-84
2021/07/13 08:37:35;;;;;;;10.80;7.03;;;;;;;27.13;40.80;94602.75;2968664;40;20115;-82
2021/07/13 08:39:37;;;;;;;10.77;7.20;;;;;;;27.31;40.61;94593.41;2971600;40;20063;-84
2021/07/13 08:41:39;;;;;;;9.57;7.25;;;;;;;27.63;40.06;94600.44;2969598;40;20056;-83
2021/07/13 08:43:42;;;;;;;13.30;8.02;;;;;;;27.66;39.46;94598.03;2972369;40;20076;-82
2021/07/13 08:45:45;;;;;;;8.38;7.53;;;;;;;28.05;39.42;94596.66;2956983;40;20052;-81
2021/07/13 08:47:49;;;;;;;13.18;6.85;;;;;;;28.21;38.24;94581.31;2962509;40;20041;-84
2021/07/13 08:49:51;;;;;;;11.20;8.60;;;;;;;28.34;38.27;94591.50;2970753;40;20056;-81
2021/07/13 08:51:53;;;;;;;8.93;7.10;;;;;;;28.30;37.87;94582.34;2957073;40;20230;-80
2021/07/13 08:53:55;;;;;;;13.13;7.25;;;;;;;28.41;38.50;94594.72;2968530;40;20067;-82
2021/07/13 08:55:57;;;;;;;10.65;6.68;;;;;;;28.62;37.28;94583.91;2950512;40;20368;-83
2021/07/13 08:57:59;;;;;;;10.52;6.70;;;;;;;28.92;36.02;94594.56;2963440;40;20084;-81
2021/07/13 09:00:00;;;;;;;8.45;6.43;;;;;;;29.14;35.21;94590.72;2965968;40;20192;-69
2021/07/13 09:02:03;;;;;;;10.27;6.85;;;;;;;29.37;34.91;94587.34;2967229;40;20439;-83
2021/07/13 09:04:07;;;;;;;8.65;6.05;;;;;;;29.47;33.61;94588.34;2974686;40;20447;-85
2021/07/13 09:06:09;;;;;;;7.90;5.75;;;;;;;29.71;33.59;94588.50;2962301;40;20071;-84
2021/07/13 09:08:16;;;;;;;7.80;6.22;;;;;;;29.91;33.36;94588.31;2968009;40;20115;-81
2021/07/13 09:10:19;;;;;;;5.90;5.30;;;;;;;30.08;33.23;94593.28;2968021;40;20108;-82
2021/07/13 09:12:23;;;;;;;8.02;5.47;;;;;;;30.15;32.41;94588.34;2968441;40;20085;-84
2021/07/13 09:14:25;;;;;;;10.73;5.88;;;;;;;30.20;32.73;94590.19;2962524;40;20061;-81
2021/07/13 09:16:33;;;;;;;7.75;6.55;;;;;;;30.35;32.35;94587.41;2976774;40;20149;-83
2021/07/13 09:18:38;;;;;;;9.23;6.45;;;;;;;30.43;32.47;94594.06;2977347;40;20048;-82
2021/07/13 09:20:40;;;;;;;10.75;6.50;;;;;;;30.44;33.28;94590.28;2971210;40;20052;-82
2021/07/13 09:22:58;;;;;;;6.80;5.93;;;;;;;30.33;32.72;94596.84;2967855;40;20413;-80
2021/07/13 09:25:00;;;;;;;10.60;6.60;;;;;;;30.23;33.35;94594.25;2969177;40;20129;-83
2021/07/13 09:27:04;;;;;;;8.23;6.10;;;;;;;30.01;33.57;94592.81;2963022;40;20114;-83
2021/07/13 09:29:08;;;;;;;12.15;7.45;;;;;;;30.05;34.17;94593.88;2969503;40;20352;-82
2021/07/13 09:31:16;;;;;;;8.35;5.78;;;;;;;30.12;33.14;94596.25;2968018;40;20048;-82
2021/07/13 09:33:34;;;;;;;9.77;6.75;;;;;;;30.33;33.00;94594.97;2964297;40;20052;-82
2021/07/13 09:35:36;;;;;;;8.95;6.40;;;;;;;30.54;32.86;94592.03;2970914;40;20099;-83
2021/07/13 09:37:47;;;;;;;8.35;6.30;;;;;;;30.69;32.74;94588.38;2967779;40;20056;-83